Startpagina
METAR-TAF:

METAR-TAF

Vliegvelden :

Vliegbasis Spangdahlem

Spangdahlem, Duitsland

breedte: 49-59N, lengte: 006-42E, hoogte: 365 m

Actueel weer

Dit bericht is 18 minuten geleden gemaakt, om 21:56 UTC
Wind 3 kt uit het westnoordwesten
Temperatuur 20°C
Vochtigheid 43%
Druk 1014 hPa
Zicht 10 km of meer
Onbewolkt

METAR: ETAD 162156Z AUTO 30003KT 9999 CLR 20/07 A2995 RMK AO2 SLP116 T02030073 $

Tijdstip: 00:14 (22:14 UTC)

Verwachting

Dit bericht is 3 uur en het 1 minuten geleden gemaakt, om 19:13 UTC
Verwachting geldig van 16 om 19 UTC tot 18 om 01 UTC
Wind 6 kt uit variabele richting
Zicht 10 km of meer
Weinig wolken op 10000 ft
Wijzigt naar
van 17 om 11 UTC tot 17 om 12 UTC
Wind 9 kt uit het westnoordwesten
Zicht 10 km of meer
Weinig wolken op 8000 ft

TAF: ETAD 161913Z 1619/1801 VRB06KT 9999 FEW100 QNH2989INS BECMG 1711/1712 29009KT 9999 FEW080 QNH2995INS TX30/1714Z TN13/1704Z

Waarnemingen en weersverwachtingen van meer dan 4000 vliegvelden (METAR en TAF).

De beschikbare stations zijn de gele en rode punten op de kaart.

Ga met uw muis naar het station om de naam te zien.

Klik dan om waarnemingen en weersverwachtingen te zien.

kaart wijzigen: klik op de groene knoppen met een zwart kruis om in te zoomen, op de groene knop met een streepje om uit te zoomen of op de groene pijlen voor aangrenzende kaarten.


METAR-TAF: